sensor_id;sensor_type;location;lat;lon;timestamp;pressure;altitude;pressure_sealevel;temperature;humidity
13765;BME280;6953;48.810;9.204;2024-02-16T00:02:18;98606.25;;;11.92;97.53
13765;BME280;6953;48.810;9.204;2024-02-16T00:04:45;98581.38;;;11.98;97.80
13765;BME280;6953;48.810;9.204;2024-02-16T00:07:10;98523.72;;;11.67;97.34
13765;BME280;6953;48.810;9.204;2024-02-16T00:09:35;98610.13;;;12.01;97.01
13765;BME280;6953;48.810;9.204;2024-02-16T00:12:01;98548.94;;;11.69;96.95
13765;BME280;6953;48.810;9.204;2024-02-16T00:14:26;98499.47;;;11.62;96.80
13765;BME280;6953;48.810;9.204;2024-02-16T00:16:51;98362.56;;;10.81;96.54
13765;BME280;6953;48.810;9.204;2024-02-16T00:19:17;98321.25;;;10.55;96.77
13765;BME280;6953;48.810;9.204;2024-02-16T00:21:42;98571.34;;;12.04;96.74
13765;BME280;6953;48.810;9.204;2024-02-16T00:24:08;98571.53;;;12.01;96.85
13765;BME280;6953;48.810;9.204;2024-02-16T00:26:33;98541.47;;;11.77;96.74
13765;BME280;6953;48.810;9.204;2024-02-16T00:28:59;98304.38;;;10.45;96.52
13765;BME280;6953;48.810;9.204;2024-02-16T00:31:24;98573.25;;;12.02;97.18
13765;BME280;6953;48.810;9.204;2024-02-16T00:33:49;98308.94;;;10.42;96.83
13765;BME280;6953;48.810;9.204;2024-02-16T00:36:15;98323.41;;;10.49;97.08
13765;BME280;6953;48.810;9.204;2024-02-16T00:38:40;98574.59;;;11.94;97.54
13765;BME280;6953;48.810;9.204;2024-02-16T00:41:05;98572.91;;;11.93;97.53
13765;BME280;6953;48.810;9.204;2024-02-16T00:43:32;98575.66;;;11.91;97.70
13765;BME280;6953;48.810;9.204;2024-02-16T00:45:57;98551.81;;;11.80;97.62
13765;BME280;6953;48.810;9.204;2024-02-16T00:48:23;98576.97;;;11.98;97.41
13765;BME280;6953;48.810;9.204;2024-02-16T00:50:49;98476.03;;;11.43;97.40
13765;BME280;6953;48.810;9.204;2024-02-16T00:53:14;98564.19;;;12.06;97.36
13765;BME280;6953;48.810;9.204;2024-02-16T00:55:39;98554.84;;;12.02;97.13
13765;BME280;6953;48.810;9.204;2024-02-16T00:58:06;98563.72;;;12.14;96.79
13765;BME280;6953;48.810;9.204;2024-02-16T01:00:32;98331.44;;;10.75;96.73
13765;BME280;6953;48.810;9.204;2024-02-16T01:02:57;98328.72;;;10.77;96.34
13765;BME280;6953;48.810;9.204;2024-02-16T01:05:22;98587.22;;;12.17;96.66
13765;BME280;6953;48.810;9.204;2024-02-16T01:07:48;98566.47;;;12.26;96.30
13765;BME280;6953;48.810;9.204;2024-02-16T01:10:13;98574.28;;;12.28;96.20
13765;BME280;6953;48.810;9.204;2024-02-16T01:12:39;98570.72;;;12.29;95.98
13765;BME280;6953;48.810;9.204;2024-02-16T01:15:05;98567.13;;;12.30;96.31
13765;BME280;6953;48.810;9.204;2024-02-16T01:17:30;98475.28;;;11.71;96.16
13765;BME280;6953;48.810;9.204;2024-02-16T01:19:58;98581.03;;;12.32;95.96
13765;BME280;6953;48.810;9.204;2024-02-16T01:22:23;98494.63;;;11.84;96.31
13765;BME280;6953;48.810;9.204;2024-02-16T01:24:48;98577.47;;;12.33;96.07
13765;BME280;6953;48.810;9.204;2024-02-16T01:27:14;98545.53;;;12.11;96.33
13765;BME280;6953;48.810;9.204;2024-02-16T01:29:41;98603.69;;;12.34;95.98
13765;BME280;6953;48.810;9.204;2024-02-16T01:32:06;98397.16;;;11.31;96.07
13765;BME280;6953;48.810;9.204;2024-02-16T01:34:32;98554.06;;;12.14;96.08
13765;BME280;6953;48.810;9.204;2024-02-16T01:36:57;98591.00;;;12.41;95.58
13765;BME280;6953;48.810;9.204;2024-02-16T01:39:22;98565.44;;;12.43;95.88
13765;BME280;6953;48.810;9.204;2024-02-16T01:41:48;98606.59;;;12.43;95.62
13765;BME280;6953;48.810;9.204;2024-02-16T01:44:13;98563.44;;;12.46;95.58
13765;BME280;6953;48.810;9.204;2024-02-16T01:46:41;98568.63;;;12.47;95.36
13765;BME280;6953;48.810;9.204;2024-02-16T01:49:07;98571.91;;;12.51;95.51
13765;BME280;6953;48.810;9.204;2024-02-16T01:51:33;98560.25;;;12.55;95.38
13765;BME280;6953;48.810;9.204;2024-02-16T01:54:00;98351.53;;;11.32;95.54
13765;BME280;6953;48.810;9.204;2024-02-16T01:56:26;98490.09;;;12.14;95.39
13765;BME280;6953;48.810;9.204;2024-02-16T01:58:52;98326.22;;;11.17;95.15
13765;BME280;6953;48.810;9.204;2024-02-16T02:01:17;98529.94;;;12.22;95.14
13765;BME280;6953;48.810;9.204;2024-02-16T02:03:42;98491.72;;;12.16;95.27
13765;BME280;6953;48.810;9.204;2024-02-16T02:06:08;98556.00;;;12.66;94.78
13765;BME280;6953;48.810;9.204;2024-02-16T02:08:33;98562.03;;;12.68;94.71
13765;BME280;6953;48.810;9.204;2024-02-16T02:10:58;98483.53;;;12.21;94.54
13765;BME280;6953;48.810;9.204;2024-02-16T02:13:24;98522.56;;;12.41;94.73
13765;BME280;6953;48.810;9.204;2024-02-16T02:15:50;98488.44;;;12.13;95.66
13765;BME280;6953;48.810;9.204;2024-02-16T02:18:15;98346.31;;;11.18;95.71
13765;BME280;6953;48.810;9.204;2024-02-16T02:20:40;98580.28;;;12.30;96.65
13765;BME280;6953;48.810;9.204;2024-02-16T02:23:06;98572.66;;;12.25;97.19
13765;BME280;6953;48.810;9.204;2024-02-16T02:25:31;98550.97;;;12.22;97.89
13765;BME280;6953;48.810;9.204;2024-02-16T02:27:56;98472.56;;;11.72;97.43
13765;BME280;6953;48.810;9.204;2024-02-16T02:30:22;98527.97;;;12.11;98.48
13765;BME280;6953;48.810;9.204;2024-02-16T02:32:49;98457.84;;;11.70;98.60
13765;BME280;6953;48.810;9.204;2024-02-16T02:35:16;98537.00;;;12.21;98.71
13765;BME280;6953;48.810;9.204;2024-02-16T02:37:41;98451.44;;;11.74;98.85
13765;BME280;6953;48.810;9.204;2024-02-16T02:40:07;98531.91;;;12.18;99.62
13765;BME280;6953;48.810;9.204;2024-02-16T02:42:34;98375.94;;;11.20;99.82
13765;BME280;6953;48.810;9.204;2024-02-16T02:44:59;98529.19;;;12.06;100.00
13765;BME280;6953;48.810;9.204;2024-02-16T02:47:24;98529.25;;;12.04;100.00
13765;BME280;6953;48.810;9.204;2024-02-16T02:49:50;98439.84;;;11.48;100.00
13765;BME280;6953;48.810;9.204;2024-02-16T02:52:15;98533.13;;;11.99;100.00
13765;BME280;6953;48.810;9.204;2024-02-16T02:54:40;98534.91;;;11.98;100.00
13765;BME280;6953;48.810;9.204;2024-02-16T02:57:06;98442.66;;;11.45;100.00
13765;BME280;6953;48.810;9.204;2024-02-16T02:59:32;98502.78;;;11.79;100.00
13765;BME280;6953;48.810;9.204;2024-02-16T03:01:57;98270.38;;;10.44;100.00
13765;BME280;6953;48.810;9.204;2024-02-16T03:04:22;98260.25;;;10.38;100.00
13765;BME280;6953;48.810;9.204;2024-02-16T03:06:52;98324.59;;;10.73;100.00
13765;BME280;6953;48.810;9.204;2024-02-16T03:09:17;98462.81;;;11.60;100.00
13765;BME280;6953;48.810;9.204;2024-02-16T03:11:43;98509.16;;;11.89;100.00
13765;BME280;6953;48.810;9.204;2024-02-16T03:14:08;98509.09;;;11.91;100.00
13765;BME280;6953;48.810;9.204;2024-02-16T03:16:33;98488.63;;;11.82;100.00
13765;BME280;6953;48.810;9.204;2024-02-16T03:18:59;98442.31;;;11.65;100.00
13765;BME280;6953;48.810;9.204;2024-02-16T03:21:25;98219.78;;;10.42;99.67
13765;BME280;6953;48.810;9.204;2024-02-16T03:23:50;98271.56;;;10.82;99.18
13765;BME280;6953;48.810;9.204;2024-02-16T03:26:19;98536.22;;;12.33;99.12
13765;BME280;6953;48.810;9.204;2024-02-16T03:28:46;98457.63;;;12.01;98.75
13765;BME280;6953;48.810;9.204;2024-02-16T03:31:22;98317.25;;;11.21;98.12
13765;BME280;6953;48.810;9.204;2024-02-16T03:33:49;98539.88;;;12.44;97.66
13765;BME280;6953;48.810;9.204;2024-02-16T03:36:15;98474.06;;;12.18;97.05
13765;BME280;6953;48.810;9.204;2024-02-16T03:38:45;98523.78;;;12.49;96.84
13765;BME280;6953;48.810;9.204;2024-02-16T03:41:15;98485.88;;;12.11;96.68
13765;BME280;6953;48.810;9.204;2024-02-16T03:43:42;98527.47;;;12.46;96.25
13765;BME280;6953;48.810;9.204;2024-02-16T03:46:08;98557.34;;;12.45;96.02
13765;BME280;6953;48.810;9.204;2024-02-16T03:48:33;98519.31;;;12.37;95.98
13765;BME280;6953;48.810;9.204;2024-02-16T03:50:59;98305.34;;;11.16;95.83
13765;BME280;6953;48.810;9.204;2024-02-16T03:53:24;98483.06;;;12.14;95.83
13765;BME280;6953;48.810;9.204;2024-02-16T03:55:49;98520.81;;;12.41;95.73
13765;BME280;6953;48.810;9.204;2024-02-16T03:58:16;98534.13;;;12.52;95.94
13765;BME280;6953;48.810;9.204;2024-02-16T04:00:42;98538.44;;;12.53;95.42
13765;BME280;6953;48.810;9.204;2024-02-16T04:03:07;98301.09;;;11.13;95.30
13765;BME280;6953;48.810;9.204;2024-02-16T04:05:32;98543.53;;;12.56;95.83
13765;BME280;6953;48.810;9.204;2024-02-16T04:08:00;98520.69;;;12.43;95.94
13765;BME280;6953;48.810;9.204;2024-02-16T04:10:27;98579.13;;;12.61;95.84
13765;BME280;6953;48.810;9.204;2024-02-16T04:12:53;98530.16;;;12.59;96.27
13765;BME280;6953;48.810;9.204;2024-02-16T04:15:19;98527.63;;;12.57;95.58
13765;BME280;6953;48.810;9.204;2024-02-16T04:17:44;98544.53;;;12.67;95.39
13765;BME280;6953;48.810;9.204;2024-02-16T04:20:10;98540.03;;;12.69;95.26
13765;BME280;6953;48.810;9.204;2024-02-16T04:22:36;98542.53;;;12.71;95.22
13765;BME280;6953;48.810;9.204;2024-02-16T04:25:03;98516.25;;;12.57;95.04
13765;BME280;6953;48.810;9.204;2024-02-16T04:27:29;98540.66;;;12.73;95.11
13765;BME280;6953;48.810;9.204;2024-02-16T04:29:55;98539.91;;;12.71;94.65
13765;BME280;6953;48.810;9.204;2024-02-16T04:32:20;98547.72;;;12.72;94.28
13765;BME280;6953;48.810;9.204;2024-02-16T04:34:45;98537.56;;;12.66;94.07
13765;BME280;6953;48.810;9.204;2024-02-16T04:37:12;98552.69;;;12.77;94.21
13765;BME280;6953;48.810;9.204;2024-02-16T04:39:38;98555.63;;;12.72;94.14
13765;BME280;6953;48.810;9.204;2024-02-16T04:42:04;98541.16;;;12.65;94.22
13765;BME280;6953;48.810;9.204;2024-02-16T04:44:29;98443.91;;;12.10;93.88
13765;BME280;6953;48.810;9.204;2024-02-16T04:46:55;98423.56;;;11.99;93.63
13765;BME280;6953;48.810;9.204;2024-02-16T04:49:20;98327.94;;;11.46;93.56
13765;BME280;6953;48.810;9.204;2024-02-16T04:51:47;98298.75;;;11.23;93.45
13765;BME280;6953;48.810;9.204;2024-02-16T04:54:12;98554.19;;;12.67;94.10
13765;BME280;6953;48.810;9.204;2024-02-16T04:56:38;98495.19;;;12.31;93.51
13765;BME280;6953;48.810;9.204;2024-02-16T04:59:04;98556.75;;;12.68;93.14
13765;BME280;6953;48.810;9.204;2024-02-16T05:01:30;98542.47;;;12.58;92.92
13765;BME280;6953;48.810;9.204;2024-02-16T05:03:57;98540.69;;;12.59;92.73
13765;BME280;6953;48.810;9.204;2024-02-16T05:06:23;98555.91;;;12.68;92.64
13765;BME280;6953;48.810;9.204;2024-02-16T05:08:48;98363.47;;;11.51;92.82
13765;BME280;6953;48.810;9.204;2024-02-16T05:11:14;98563.91;;;12.66;93.08
13765;BME280;6953;48.810;9.204;2024-02-16T05:13:39;98421.03;;;11.84;92.83
13765;BME280;6953;48.810;9.204;2024-02-16T05:16:09;98544.16;;;12.59;92.74
13765;BME280;6953;48.810;9.204;2024-02-16T05:18:34;98317.13;;;11.23;92.92
13765;BME280;6953;48.810;9.204;2024-02-16T05:20:59;98559.56;;;12.65;92.84
13765;BME280;6953;48.810;9.204;2024-02-16T05:23:25;98567.56;;;12.64;92.90
13765;BME280;6953;48.810;9.204;2024-02-16T05:25:50;98553.19;;;12.55;92.68
13765;BME280;6953;48.810;9.204;2024-02-16T05:28:15;98184.41;;;10.35;92.10
13765;BME280;6953;48.810;9.204;2024-02-16T05:30:40;98514.22;;;12.34;92.36
13765;BME280;6953;48.810;9.204;2024-02-16T05:33:06;98366.47;;;11.45;91.83
13765;BME280;6953;48.810;9.204;2024-02-16T05:35:31;98573.38;;;12.69;91.84
13765;BME280;6953;48.810;9.204;2024-02-16T05:37:59;98581.69;;;12.63;91.41
13765;BME280;6953;48.810;9.204;2024-02-16T05:40:32;98610.91;;;12.72;91.54
13765;BME280;6953;48.810;9.204;2024-02-16T05:43:09;98534.22;;;12.50;91.25
13765;BME280;6953;48.810;9.204;2024-02-16T05:45:34;98564.09;;;12.63;91.08
13765;BME280;6953;48.810;9.204;2024-02-16T05:48:00;98569.72;;;12.71;90.82
13765;BME280;6953;48.810;9.204;2024-02-16T05:50:26;98575.00;;;12.71;91.00
13765;BME280;6953;48.810;9.204;2024-02-16T05:52:51;98599.13;;;12.64;90.49
13765;BME280;6953;48.810;9.204;2024-02-16T05:55:17;98429.66;;;11.86;90.78
13765;BME280;6953;48.810;9.204;2024-02-16T05:57:44;98568.25;;;12.53;91.06
13765;BME280;6953;48.810;9.204;2024-02-16T06:00:10;98534.53;;;12.32;90.69
13765;BME280;6953;48.810;9.204;2024-02-16T06:02:36;98374.81;;;11.38;90.54
13765;BME280;6953;48.810;9.204;2024-02-16T06:05:03;98578.38;;;12.59;90.92
13765;BME280;6953;48.810;9.204;2024-02-16T06:07:29;98514.16;;;12.22;90.91
13765;BME280;6953;48.810;9.204;2024-02-16T06:09:55;98506.28;;;12.08;90.36
13765;BME280;6953;48.810;9.204;2024-02-16T06:12:21;98341.34;;;11.14;90.11
13765;BME280;6953;48.810;9.204;2024-02-16T06:14:47;98598.78;;;12.56;90.17
13765;BME280;6953;48.810;9.204;2024-02-16T06:17:14;98583.66;;;12.45;90.15
13765;BME280;6953;48.810;9.204;2024-02-16T06:19:43;98602.47;;;12.53;90.67
13765;BME280;6953;48.810;9.204;2024-02-16T06:22:09;98624.19;;;12.43;90.58
13765;BME280;6953;48.810;9.204;2024-02-16T06:24:35;98589.97;;;12.43;90.58
13765;BME280;6953;48.810;9.204;2024-02-16T06:27:00;98544.97;;;12.06;90.36
13765;BME280;6953;48.810;9.204;2024-02-16T06:29:26;98593.63;;;12.41;90.62
13765;BME280;6953;48.810;9.204;2024-02-16T06:31:51;98588.34;;;12.41;90.51
13765;BME280;6953;48.810;9.204;2024-02-16T06:34:18;98408.09;;;11.24;90.66
13765;BME280;6953;48.810;9.204;2024-02-16T06:36:43;98605.94;;;12.40;91.02
13765;BME280;6953;48.810;9.204;2024-02-16T06:39:09;98636.19;;;12.47;91.26
13765;BME280;6953;48.810;9.204;2024-02-16T06:41:44;98454.03;;;11.46;90.71
13765;BME280;6953;48.810;9.204;2024-02-16T06:44:11;98599.72;;;12.27;90.78
13765;BME280;6953;48.810;9.204;2024-02-16T06:46:37;98369.34;;;10.99;90.65
13765;BME280;6953;48.810;9.204;2024-02-16T06:49:02;98633.00;;;12.56;90.83
13765;BME280;6953;48.810;9.204;2024-02-16T06:51:27;98351.44;;;10.92;90.62
13765;BME280;6953;48.810;9.204;2024-02-16T06:53:54;98569.56;;;12.19;90.53
13765;BME280;6953;48.810;9.204;2024-02-16T06:56:19;98613.16;;;12.23;90.99
13765;BME280;6953;48.810;9.204;2024-02-16T06:58:45;98648.88;;;12.54;90.87
13765;BME280;6953;48.810;9.204;2024-02-16T07:01:12;98618.53;;;12.35;90.90
13765;BME280;6953;48.810;9.204;2024-02-16T07:03:38;98658.47;;;12.55;90.46
13765;BME280;6953;48.810;9.204;2024-02-16T07:06:04;98659.88;;;12.61;90.35
13765;BME280;6953;48.810;9.204;2024-02-16T07:08:29;98658.94;;;12.62;90.39
13765;BME280;6953;48.810;9.204;2024-02-16T07:10:55;98623.41;;;12.41;89.89
13765;BME280;6953;48.810;9.204;2024-02-16T07:13:22;98651.13;;;12.60;90.07
13765;BME280;6953;48.810;9.204;2024-02-16T07:15:47;98450.72;;;11.42;89.86
13765;BME280;6953;48.810;9.204;2024-02-16T07:18:12;98662.63;;;12.73;89.44
13765;BME280;6953;48.810;9.204;2024-02-16T07:20:38;98657.53;;;12.70;89.71
13765;BME280;6953;48.810;9.204;2024-02-16T07:23:03;98667.28;;;12.82;89.53
13765;BME280;6953;48.810;9.204;2024-02-16T07:25:29;98663.44;;;12.88;89.26
13765;BME280;6953;48.810;9.204;2024-02-16T07:27:54;98439.34;;;11.57;88.99
13765;BME280;6953;48.810;9.204;2024-02-16T07:30:19;98673.50;;;12.95;89.18
13765;BME280;6953;48.810;9.204;2024-02-16T07:32:48;98673.31;;;12.98;88.83
13765;BME280;6953;48.810;9.204;2024-02-16T07:35:15;98385.16;;;11.27;88.71
13765;BME280;6953;48.810;9.204;2024-02-16T07:37:40;98594.84;;;12.49;89.23
13765;BME280;6953;48.810;9.204;2024-02-16T07:40:07;98424.38;;;11.44;88.90
13765;BME280;6953;48.810;9.204;2024-02-16T07:42:37;98495.44;;;11.84;88.64
13765;BME280;6953;48.810;9.204;2024-02-16T07:45:05;98680.88;;;12.90;89.11
13765;BME280;6953;48.810;9.204;2024-02-16T07:47:31;98698.72;;;12.85;89.51
13765;BME280;6953;48.810;9.204;2024-02-16T07:49:57;98677.81;;;12.82;89.40
13765;BME280;6953;48.810;9.204;2024-02-16T07:52:22;98488.63;;;11.68;88.99
13765;BME280;6953;48.810;9.204;2024-02-16T07:54:48;98675.38;;;12.79;89.78
13765;BME280;6953;48.810;9.204;2024-02-16T07:57:14;98702.94;;;12.74;89.58
13765;BME280;6953;48.810;9.204;2024-02-16T07:59:40;98651.31;;;12.57;89.48
13765;BME280;6953;48.810;9.204;2024-02-16T08:02:05;98688.19;;;12.85;88.92
13765;BME280;6953;48.810;9.204;2024-02-16T08:04:32;98485.03;;;11.69;88.78
13765;BME280;6953;48.810;9.204;2024-02-16T08:06:57;98667.94;;;12.86;88.47
13765;BME280;6953;48.810;9.204;2024-02-16T08:09:23;98680.59;;;12.95;88.61
13765;BME280;6953;48.810;9.204;2024-02-16T08:11:48;98686.41;;;13.00;88.63
13765;BME280;6953;48.810;9.204;2024-02-16T08:14:13;98689.50;;;13.06;88.18
13765;BME280;6953;48.810;9.204;2024-02-16T08:16:39;98724.66;;;13.19;88.36
13765;BME280;6953;48.810;9.204;2024-02-16T08:19:04;98704.59;;;13.31;87.83
13765;BME280;6953;48.810;9.204;2024-02-16T08:21:30;98692.19;;;13.59;87.12
13765;BME280;6953;48.810;9.204;2024-02-16T08:23:56;98729.34;;;13.82;85.36
13765;BME280;6953;48.810;9.204;2024-02-16T08:26:21;98455.47;;;12.74;83.67
13765;BME280;6953;48.810;9.204;2024-02-16T08:28:46;98717.66;;;14.38;82.32
13765;BME280;6953;48.810;9.204;2024-02-16T08:31:15;98686.22;;;14.72;81.60
13765;BME280;6953;48.810;9.204;2024-02-16T08:33:43;98588.63;;;14.58;80.00
13765;BME280;6953;48.810;9.204;2024-02-16T08:36:09;98675.03;;;15.65;77.50
13765;BME280;6953;48.810;9.204;2024-02-16T08:38:34;98618.63;;;15.88;75.41
13765;BME280;6953;48.810;9.204;2024-02-16T08:41:01;98656.84;;;16.53;73.01
13765;BME280;6953;48.810;9.204;2024-02-16T08:43:28;98684.13;;;16.98;71.13
13765;BME280;6953;48.810;9.204;2024-02-16T08:45:54;98581.56;;;17.83;63.80
13765;BME280;6953;48.810;9.204;2024-02-16T08:48:19;98491.88;;;20.37;50.40
13765;BME280;6953;48.810;9.204;2024-02-16T08:50:45;98676.81;;;23.94;41.46
13765;BME280;6953;48.810;9.204;2024-02-16T08:53:10;98677.03;;;25.97;35.81
13765;BME280;6953;48.810;9.204;2024-02-16T08:55:35;98671.34;;;27.47;31.25
13765;BME280;6953;48.810;9.204;2024-02-16T08:58:01;98682.19;;;28.53;30.01
13765;BME280;6953;48.810;9.204;2024-02-16T09:00:26;98699.16;;;28.89;28.55
13765;BME280;6953;48.810;9.204;2024-02-16T09:02:53;98712.06;;;29.75;27.08
13765;BME280;6953;48.810;9.204;2024-02-16T09:05:19;98538.00;;;29.56;25.73
13765;BME280;6953;48.810;9.204;2024-02-16T09:07:45;98692.22;;;31.14;25.09
13765;BME280;6953;48.810;9.204;2024-02-16T09:10:12;98723.31;;;32.20;23.86
13765;BME280;6953;48.810;9.204;2024-02-16T09:12:38;98718.50;;;32.90;23.25
13765;BME280;6953;48.810;9.204;2024-02-16T09:15:04;98576.56;;;32.51;22.76
13765;BME280;6953;48.810;9.204;2024-02-16T09:17:31;98687.78;;;33.74;21.36
13765;BME280;6953;48.810;9.204;2024-02-16T09:19:56;98682.63;;;34.79;19.96
13765;BME280;6953;48.810;9.204;2024-02-16T09:22:22;98744.09;;;35.91;19.15
13765;BME280;6953;48.810;9.204;2024-02-16T09:24:47;98729.81;;;36.51;18.79
13765;BME280;6953;48.810;9.204;2024-02-16T09:27:13;98737.22;;;36.39;18.31
13765;BME280;6953;48.810;9.204;2024-02-16T09:29:38;98732.28;;;36.13;18.97
13765;BME280;6953;48.810;9.204;2024-02-16T09:32:05;98730.72;;;34.62;19.70
13765;BME280;6953;48.810;9.204;2024-02-16T09:34:30;98719.00;;;31.93;22.75
13765;BME280;6953;48.810;9.204;2024-02-16T09:36:56;98714.75;;;29.75;25.14
13765;BME280;6953;48.810;9.204;2024-02-16T09:39:21;98627.09;;;27.42;27.31
13765;BME280;6953;48.810;9.204;2024-02-16T09:41:50;98645.34;;;26.29;29.72
13765;BME280;6953;48.810;9.204;2024-02-16T09:44:17;98700.31;;;25.82;30.75
13765;BME280;6953;48.810;9.204;2024-02-16T09:46:42;98710.91;;;25.75;30.87
13765;BME280;6953;48.810;9.204;2024-02-16T09:49:08;98702.81;;;26.66;29.66
13765;BME280;6953;48.810;9.204;2024-02-16T09:51:36;98736.09;;;28.11;27.51
13765;BME280;6953;48.810;9.204;2024-02-16T09:54:03;98602.72;;;28.62;26.21
13765;BME280;6953;48.810;9.204;2024-02-16T09:56:28;98570.47;;;29.62;24.60
13765;BME280;6953;48.810;9.204;2024-02-16T09:58:54;98744.53;;;31.01;24.13
13765;BME280;6953;48.810;9.204;2024-02-16T10:01:21;98754.59;;;31.14;23.73
13765;BME280;6953;48.810;9.204;2024-02-16T10:03:48;98572.94;;;30.88;23.17
13765;BME280;6953;48.810;9.204;2024-02-16T10:06:14;98761.84;;;33.16;21.72
13765;BME280;6953;48.810;9.204;2024-02-16T10:11:16;98734.09;;;35.96;18.64
13765;BME280;6953;48.810;9.204;2024-02-16T10:13:41;98770.44;;;35.39;19.21
13765;BME280;6953;48.810;9.204;2024-02-16T10:16:08;98626.34;;;33.00;21.36
13765;BME280;6953;48.810;9.204;2024-02-16T10:18:35;98768.31;;;31.71;23.38
13765;BME280;6953;48.810;9.204;2024-02-16T10:21:01;98748.25;;;29.74;25.16
13765;BME280;6953;48.810;9.204;2024-02-16T10:23:26;98744.38;;;28.59;27.19
13765;BME280;6953;48.810;9.204;2024-02-16T10:25:51;98733.34;;;28.05;27.58
13765;BME280;6953;48.810;9.204;2024-02-16T10:28:17;98678.03;;;27.51;27.96
13765;BME280;6953;48.810;9.204;2024-02-16T10:30:45;98740.72;;;27.67;28.69
13765;BME280;6953;48.810;9.204;2024-02-16T10:33:12;98747.53;;;27.27;28.65
13765;BME280;6953;48.810;9.204;2024-02-16T10:35:41;98749.47;;;26.81;29.39
13765;BME280;6953;48.810;9.204;2024-02-16T10:38:07;98768.56;;;26.72;30.13
13765;BME280;6953;48.810;9.204;2024-02-16T10:40:39;98751.75;;;26.47;30.09
13765;BME280;6953;48.810;9.204;2024-02-16T10:43:06;98603.91;;;24.86;31.16
13765;BME280;6953;48.810;9.204;2024-02-16T10:45:34;98756.94;;;25.80;31.58
13765;BME280;6953;48.810;9.204;2024-02-16T10:48:00;98764.50;;;25.77;31.90
13765;BME280;6953;48.810;9.204;2024-02-16T10:50:25;98570.41;;;24.42;32.67
13765;BME280;6953;48.810;9.204;2024-02-16T10:52:52;98781.91;;;25.34;32.92
13765;BME280;6953;48.810;9.204;2024-02-16T10:55:19;98760.25;;;24.96;33.31
13765;BME280;6953;48.810;9.204;2024-02-16T10:57:45;98697.16;;;24.36;33.97
13765;BME280;6953;48.810;9.204;2024-02-16T11:00:11;98735.38;;;24.30;34.62
13765;BME280;6953;48.810;9.204;2024-02-16T11:02:55;98754.69;;;24.34;35.10
13765;BME280;6953;48.810;9.204;2024-02-16T11:05:40;98737.63;;;23.94;35.74
13765;BME280;6953;48.810;9.204;2024-02-16T11:08:16;98688.97;;;23.39;36.27
13765;BME280;6953;48.810;9.204;2024-02-16T11:10:56;98781.06;;;23.72;36.76
13765;BME280;6953;48.810;9.204;2024-02-16T11:13:23;98757.25;;;23.61;37.24
13765;BME280;6953;48.810;9.204;2024-02-16T11:16:08;98758.38;;;23.58;37.22
13765;BME280;6953;48.810;9.204;2024-02-16T11:18:38;98559.84;;;22.53;36.99
13765;BME280;6953;48.810;9.204;2024-02-16T11:21:04;98710.97;;;23.51;37.12
13765;BME280;6953;48.810;9.204;2024-02-16T11:23:32;98731.81;;;23.39;37.16
13765;BME280;6953;48.810;9.204;2024-02-16T11:26:04;98756.44;;;23.76;37.24
13765;BME280;6953;48.810;9.204;2024-02-16T11:28:33;98575.19;;;22.77;37.20
13765;BME280;6953;48.810;9.204;2024-02-16T11:31:00;98748.22;;;23.70;37.04
13765;BME280;6953;48.810;9.204;2024-02-16T11:33:26;98746.28;;;23.46;37.49
13765;BME280;6953;48.810;9.204;2024-02-16T11:35:59;98753.13;;;23.41;37.62
13765;BME280;6953;48.810;9.204;2024-02-16T11:38:25;98719.25;;;23.07;37.77
13765;BME280;6953;48.810;9.204;2024-02-16T11:43:22;98745.75;;;23.43;37.39
13765;BME280;6953;48.810;9.204;2024-02-16T11:45:49;98752.00;;;23.51;37.30
13765;BME280;6953;48.810;9.204;2024-02-16T11:48:25;98578.47;;;22.63;36.94
13765;BME280;6953;48.810;9.204;2024-02-16T11:51:03;98709.94;;;23.44;37.02
13765;BME280;6953;48.810;9.204;2024-02-16T11:53:29;98752.59;;;24.12;36.39
13765;BME280;6953;48.810;9.204;2024-02-16T11:55:54;98608.69;;;23.63;35.66
13765;BME280;6953;48.810;9.204;2024-02-16T11:58:20;98665.66;;;24.46;34.95
13765;BME280;6953;48.810;9.204;2024-02-16T12:00:46;98755.53;;;25.46;34.14
13765;BME280;6953;48.810;9.204;2024-02-16T12:03:23;98556.41;;;24.87;32.86
13765;BME280;6953;48.810;9.204;2024-02-16T12:05:53;98764.72;;;26.66;30.95
13765;BME280;6953;48.810;9.204;2024-02-16T12:08:21;98742.53;;;27.09;30.87
13765;BME280;6953;48.810;9.204;2024-02-16T12:10:50;98691.06;;;27.19;30.05
13765;BME280;6953;48.810;9.204;2024-02-16T12:13:17;98751.84;;;27.64;30.22
13765;BME280;6953;48.810;9.204;2024-02-16T12:15:47;98663.81;;;27.14;30.03
13765;BME280;6953;48.810;9.204;2024-02-16T12:18:20;98746.78;;;27.69;30.12
13765;BME280;6953;48.810;9.204;2024-02-16T12:20:56;98775.88;;;27.74;29.49
13765;BME280;6953;48.810;9.204;2024-02-16T12:23:21;98752.63;;;27.73;30.38
13765;BME280;6953;48.810;9.204;2024-02-16T12:25:47;98564.75;;;26.36;30.78
13765;BME280;6953;48.810;9.204;2024-02-16T12:28:13;98728.41;;;27.36;30.99
13765;BME280;6953;48.810;9.204;2024-02-16T12:30:38;98739.97;;;27.73;29.98
13765;BME280;6953;48.810;9.204;2024-02-16T12:33:05;98762.94;;;27.69;29.42
13765;BME280;6953;48.810;9.204;2024-02-16T12:35:30;98700.81;;;26.97;30.41
13765;BME280;6953;48.810;9.204;2024-02-16T12:37:56;98652.91;;;26.11;30.93
13765;BME280;6953;48.810;9.204;2024-02-16T12:40:21;98766.66;;;26.28;32.25
13765;BME280;6953;48.810;9.204;2024-02-16T12:42:47;98764.78;;;25.90;32.65
13765;BME280;6953;48.810;9.204;2024-02-16T12:45:13;98758.69;;;25.57;33.42
13765;BME280;6953;48.810;9.204;2024-02-16T12:47:38;98764.28;;;25.40;34.00
13765;BME280;6953;48.810;9.204;2024-02-16T12:50:04;98714.81;;;24.95;34.23
13765;BME280;6953;48.810;9.204;2024-02-16T12:52:29;98765.50;;;25.14;34.61
13765;BME280;6953;48.810;9.204;2024-02-16T12:54:56;98764.28;;;25.08;35.19
13765;BME280;6953;48.810;9.204;2024-02-16T12:57:23;98705.41;;;24.59;35.88
13765;BME280;6953;48.810;9.204;2024-02-16T12:59:49;98574.38;;;23.67;36.50
13765;BME280;6953;48.810;9.204;2024-02-16T13:02:14;98538.97;;;23.39;37.10
13765;BME280;6953;48.810;9.204;2024-02-16T13:04:39;98761.25;;;24.55;37.71
13765;BME280;6953;48.810;9.204;2024-02-16T13:07:05;98551.50;;;23.23;38.27
13765;BME280;6953;48.810;9.204;2024-02-16T13:09:30;98545.38;;;23.05;39.17
13765;BME280;6953;48.810;9.204;2024-02-16T13:11:56;98661.94;;;23.58;40.30